Logo AVAMET
Benvolgut visitant, si us plau, ingressa Recuperar contrasenya

Torrevella Patricio Pérez

Dades diàries. Acumulats / Últims 30 dies disponibles

Data Temperatura (°C) Humitat rel. (%) Pressió rel. (hPa) Vent (km/h) Precipitació
Mínima Mitjana Màxima Amplitud
tèrmica
Mínima Mitjana Màxima Mínima Mitjana Màxima Predom. Mitjana Ràfega
màxima
Total
(mm)
Índex-n
Mínima Mitjana Màxima Mínima Mitjana Màxima n
0 a 1
P0 max
mm 5'
Dades mensuals acumulades fins l'últim dia disponible
05/2019 13,6 16,5 19,6 19,2 18,4 22,1 27,9 14,3 27 75 93 1.002 1.014 1.025   6,9 49,9 1,8
Dades anuals acumulades fins l'últim dia disponible
2019 4,6 11,8 19,6 15,2 12,3 18,7 27,9 23,3 0 70 99 995 1.018 1.034   6,9 75,6 218,0
Últims 30 dies disponibles
24-05-2019 17,4     19,6     21,3 3,9 65 80 92 1.012 1.013 1.015 ESE 8,6 38,6 1,8 0,32 0,40
23-05-2019 16,6     20,1     24,3 7,7 52 82 93 1.015 1.017 1.019 S 4,9 22,5 0,0
22-05-2019 16,1     19,3     21,9 5,8 62 81 89 1.016 1.018 1.019 S 5,7 25,7 0,0
21-05-2019 18,2     19,5     21,6 3,4 76 84 92 1.013 1.015 1.017 ESE 5,2 27,4 0,0
20-05-2019 15,3     18,7     21,4 6,1 39 76 86 1.011 1.012 1.014 S 5,4 24,1 0,0
19-05-2019 15,2     18,7     21,9 6,7 38 67 90 1.009 1.010 1.012 SSO 6,7 30,6 0,0
18-05-2019 16,8     19,1     22,7 5,9 37 62 84 1.007 1.009 1.011 S 3,8 24,1 0,0
17-05-2019 17,4     21,3     25,5 8,1 27 49 86 1.002 1.006 1.009 O 11,0 49,9 0,0
16-05-2019 18,1     18,9     20,4 2,3 75 82 87 1.006 1.010 1.013 ESE 9,7 32,2 0,0
15-05-2019 15,9     20,2     24,9 9,0 52 75 87 1.009 1.011 1.015 SE 8,1 29,0 0,0
14-05-2019 15,8     18,4     21,3 5,5 59 73 83 1.015 1.019 1.021 S 6,6 27,4 0,0
13-05-2019 17,6     18,9     21,2 3,6 58 73 88 1.018 1.020 1.021 ESE 6,6 22,5 0,0
12-05-2019 18,2     19,2     20,7 2,5 73 80 90 1.020 1.022 1.025 ESE 7,8 25,7 0,0
11-05-2019 19,6     22,1     27,9 8,3 53 70 80 1.014 1.017 1.022 S 7,4 33,8 0,0
10-05-2019 18,9     22,3     26,7 7,8 54 74 92 1.012 1.013 1.015 SSO 4,2 24,1 0,0
09-05-2019 18,8     22,2     25,7 6,9 51 71 92 1.012 1.013 1.014 SSO 5,9 29,0 0,0
08-05-2019 16,6     20,5     26,0 9,4 47 79 92 1.009 1.012 1.015 SSO 4,8 24,1 0,0
07-05-2019 17,2     18,6     21,1 3,9 72 84 90 1.014 1.017 1.019 SSE 5,2 29,0 0,0
06-05-2019 15,7     17,5     19,7 4,0 75 82 89 1.016 1.018 1.020 SSE 4,9 19,3 0,0
05-05-2019 14,4     16,9     18,4 4,0 57 74 89 1.011 1.015 1.017 SSE 7,5 27,4 0,0
04-05-2019 13,6     17,0     18,9 5,3 60 76 85 1.012 1.013 1.014 S 9,2 37,0 0,0
03-05-2019 14,5     16,8     18,8 4,3 68 77 85 1.009 1.011 1.014 SE 8,6 40,2 0,0
02-05-2019 14,4     17,4     19,7 5,3 63 75 88 1.013 1.014 1.015 ESE 11,5 38,6 0,0
01-05-2019 14,2     16,9     19,1 4,9 72 82 91 1.013 1.015 1.017 ESE 5,9 24,1 0,0
30-04-2019 13,9     16,6     18,8 4,9 75 83 92 1.016 1.017 1.019 SSE 5,5 22,5 0,0
29-04-2019 14,3     16,6     18,8 4,5 73 81 86 1.017 1.019 1.020 SSE 5,5 22,5 0,0
28-04-2019 13,4     17,0     20,4 7,0 41 71 91 1.019 1.022 1.025 S 4,4 17,7 0,0
27-04-2019 13,9     16,4     19,9 6,0 0 76 90 1.024 1.025 1.027 S 4,2 20,9 0,0
26-04-2019 14,2     17,3     22,0 7,8 36 61 81 1.018 1.022 1.025 OSO 8,9 33,8 0,0
25-04-2019 14,3     18,1     23,4 9,1 49 73 88 1.011 1.013 1.018 SSO 7,5 35,4 0,0
Últims 13 mesos disponibles
04/2019 10,5 13,3 15,8 16,0 15,6 19,4 25,7 15,2 49 73 94 1.000 1.013 1.025 SSO 8,0 75,6 186,2
03/2019 8,1 11,2 14,2 14,6 13,9 18,2 25,1 17,0 55 71 90 1.011 1.022 1.030 SSO 6,6 46,7 25,8
02/2019 5,9 9,6 12,4 13,8 13,8 17,2 22,3 16,4 35 64 82 997 1.024 1.032 SO 6,9 57,9 3,6
01/2019 4,6 8,7 13,3 12,8 12,3 16,5 21,2 16,6 42 63 84 1.003 1.020 1.031 O 6,2 51,5 0,6
12/2018 8,1 10,9 15,0 14,3 14,8 18,5 23,6 15,5 55 73 86 1.010 1.025 1.032 OSO 5,3 69,2 5,4
11/2018 9,4 12,8 16,7 15,6 15,7 19,1 21,0 11,6 55 73 91 1.000 1.015 1.022 OSO 7,0 53,0 133,0
10/2018 10,3 17,0 21,7 20,1 15,4 23,2 26,2 15,9 43 72 87 1.000 1.014 1.025 7,6 52,0 31,6
09/2018 18,4 22,7 25,3 25,3 25,1 27,9 30,8 12,4 61 77 84 1.012 1.018 1.026 48,0 52,6
08/2018 22,2 24,9 27,8 27,3 28,3 29,8 33,2 11,0 61 75 83 983 1.014 1.020 40,0 5,0
07/2018 22,1 23,7 25,7 26,3 27,3 29,0 33,2 11,1 52 71 82 1.009 1.015 1.019 42,0 0,0
06/2018 15,8 20,3 23,6 23,1 22,5 25,9 28,7 12,9 59 73 83 1.009 1.015 1.021 42,0 23,8
05/2018 11,1 16,5 19,6 19,2 17,7 21,9 25,0 13,9 50 72 85 1.009 1.014 1.018 50,0 3,0
04/2018 9,4 13,9 18,9 17,0 17,1 20,0 24,5 15,1 50 66 81 1.000 1.013 1.025 69,0 9,4
Tots els anys disponibles
2018 4,3 15,9 27,8 18,9 11,6 22,1 33,2 28,9 43 70 91 983 1.016 1.033 OSO 1,5 72,0 360,4
2017 1,1 16,2 27,6 19,3 7,1 22,3 33,6 32,5 37 71 89 1.000 1.018 1.036 SSO 0,1 71,0 219,0
2016 5,4 16,4 25,7 19,4 12,6 22,3 36,1 30,7 36 71 90 998 1.018 1.037 71,0 274,2
2015 4,2 16,3 23,6 19,4 22,4 22,4 36,6 32,4 59 70 77 1.014 1.019 1.030 82,0 219,0
2014 5,5 16,2 26,3 19,2 11,7 22,2 33,6 28,1 33 69 89 993 1.016 1.033 69,0 240,4
2013 5,0 16,1 19,9 19,0 19,9 22,1 32,8 27,8 57 68 76 993 1.014 1.025 71,0 268,6
Temperatura (°C)
Humitat relativa (%)
Velocitat del vent i ràfega màxima (km/h)
Direcció del vent (°)
Pressió (hPa)
Precipitació (mm)
Nota sobre les dades: s'avisa a l'usuari de la provisionalitat i no oficialitat d'aquestes dades
Logo AVAMET blanc
Web allotjada a Sollutia
Llicència de Creative CommonsLa web d'AVAMET i els seus continguts estan subjectes a una llicència de
Reconeixement - No Comercial - Compartir igual
Properes estacions: Altea - Club Nàutic d'Altea (Soci), Ontinyent - El Pilar (Soci), Ares del Maestrat (Ajuntament Soci), Catadau - L'Altet (Inforatge)     - - - - -      Últimes estacions: Asp - Poliesportiu (Soci), Jacarilla - centro (MeteOrihuela), Elx - Maitino/Vallverda/Velarde/Matola/Ferriol (Soci TiempoElche.com), Orihuela - Playa Flamenca (MeteOrihuela), - - -